sensor_id;sensor_type;location;lat;lon;timestamp;pressure;altitude;pressure_sealevel;temperature;humidity
62524;BME280;53689;56.878;60.672;2024-03-17T00:01:58;98867.09;;;21.17;25.66
62524;BME280;53689;56.878;60.672;2024-03-17T00:04:25;98865.94;;;21.11;26.16
62524;BME280;53689;56.878;60.672;2024-03-17T00:06:53;98864.59;;;21.15;26.27
62524;BME280;53689;56.878;60.672;2024-03-17T00:09:20;98864.97;;;21.27;27.63
62524;BME280;53689;56.878;60.672;2024-03-17T00:11:47;98867.13;;;21.32;25.56
62524;BME280;53689;56.878;60.672;2024-03-17T00:14:13;98861.59;;;21.10;26.02
62524;BME280;53689;56.878;60.672;2024-03-17T00:16:40;98858.19;;;21.16;26.96
62524;BME280;53689;56.878;60.672;2024-03-17T00:19:06;98861.75;;;21.32;26.34
62524;BME280;53689;56.878;60.672;2024-03-17T00:21:33;98862.56;;;21.17;28.31
62524;BME280;53689;56.878;60.672;2024-03-17T00:24:01;98864.75;;;21.37;25.20
62524;BME280;53689;56.878;60.672;2024-03-17T00:26:28;98863.16;;;21.04;27.57
62524;BME280;53689;56.878;60.672;2024-03-17T00:28:54;98868.16;;;21.07;26.90
62524;BME280;53689;56.878;60.672;2024-03-17T00:31:21;98854.63;;;21.16;27.94
62524;BME280;53689;56.878;60.672;2024-03-17T00:33:48;98862.72;;;21.16;23.83
62524;BME280;53689;56.878;60.672;2024-03-17T00:36:15;98867.56;;;21.20;25.39
62524;BME280;53689;56.878;60.672;2024-03-17T00:38:42;98865.91;;;21.19;24.60
62524;BME280;53689;56.878;60.672;2024-03-17T00:41:10;98869.00;;;21.08;24.96
62524;BME280;53689;56.878;60.672;2024-03-17T00:43:37;98866.97;;;21.10;27.28
62524;BME280;53689;56.878;60.672;2024-03-17T00:46:03;98875.81;;;21.19;25.39
62524;BME280;53689;56.878;60.672;2024-03-17T00:48:30;98872.03;;;21.05;26.41
62524;BME280;53689;56.878;60.672;2024-03-17T00:50:57;98866.59;;;21.13;26.91
62524;BME280;53689;56.878;60.672;2024-03-17T00:53:24;98872.25;;;21.27;27.77
62524;BME280;53689;56.878;60.672;2024-03-17T00:55:52;98875.16;;;21.40;25.60
62524;BME280;53689;56.878;60.672;2024-03-17T00:58:20;98868.41;;;21.21;23.98
62524;BME280;53689;56.878;60.672;2024-03-17T01:00:47;98871.59;;;21.01;27.50
62524;BME280;53689;56.878;60.672;2024-03-17T01:03:14;98871.72;;;21.08;27.60
62524;BME280;53689;56.878;60.672;2024-03-17T01:05:41;98872.50;;;21.32;25.65
62524;BME280;53689;56.878;60.672;2024-03-17T01:08:08;98875.69;;;21.12;27.77
62524;BME280;53689;56.878;60.672;2024-03-17T01:10:37;98881.75;;;21.14;28.27
62524;BME280;53689;56.878;60.672;2024-03-17T01:13:04;98875.00;;;21.18;25.81
62524;BME280;53689;56.878;60.672;2024-03-17T01:15:32;98877.09;;;21.08;26.87
62524;BME280;53689;56.878;60.672;2024-03-17T01:17:59;98871.88;;;21.06;29.72
62524;BME280;53689;56.878;60.672;2024-03-17T01:20:26;98869.44;;;21.20;26.40
62524;BME280;53689;56.878;60.672;2024-03-17T01:22:53;98877.75;;;21.10;27.25
62524;BME280;53689;56.878;60.672;2024-03-17T01:25:20;98877.44;;;21.05;27.07
62524;BME280;53689;56.878;60.672;2024-03-17T01:27:48;98878.16;;;21.22;25.85
62524;BME280;53689;56.878;60.672;2024-03-17T01:30:15;98881.56;;;21.39;26.74
62524;BME280;53689;56.878;60.672;2024-03-17T01:32:44;98880.50;;;21.25;26.76
62524;BME280;53689;56.878;60.672;2024-03-17T01:35:10;98884.84;;;21.03;27.83
62524;BME280;53689;56.878;60.672;2024-03-17T01:37:37;98887.06;;;21.23;27.09
62524;BME280;53689;56.878;60.672;2024-03-17T01:40:04;98883.25;;;21.17;28.23
62524;BME280;53689;56.878;60.672;2024-03-17T01:42:31;98884.16;;;21.09;26.56
62524;BME280;53689;56.878;60.672;2024-03-17T01:47:24;98877.97;;;21.00;27.22
62524;BME280;53689;56.878;60.672;2024-03-17T01:49:52;98886.41;;;21.20;27.04
62524;BME280;53689;56.878;60.672;2024-03-17T01:52:21;98878.84;;;21.39;27.37
62524;BME280;53689;56.878;60.672;2024-03-17T01:54:48;98885.16;;;21.08;26.86
62524;BME280;53689;56.878;60.672;2024-03-17T01:57:15;98882.75;;;21.13;26.54
62524;BME280;53689;56.878;60.672;2024-03-17T01:59:42;98887.44;;;21.19;26.90
62524;BME280;53689;56.878;60.672;2024-03-17T02:02:08;98889.94;;;21.44;27.48
62524;BME280;53689;56.878;60.672;2024-03-17T02:04:35;98887.03;;;21.46;25.97
62524;BME280;53689;56.878;60.672;2024-03-17T02:07:03;98878.59;;;21.11;25.85
62524;BME280;53689;56.878;60.672;2024-03-17T02:09:29;98881.09;;;21.12;27.02
62524;BME280;53689;56.878;60.672;2024-03-17T02:11:56;98879.78;;;21.08;25.65
62524;BME280;53689;56.878;60.672;2024-03-17T02:14:22;98883.25;;;21.17;29.09
62524;BME280;53689;56.878;60.672;2024-03-17T02:16:49;98872.81;;;21.37;26.37
62524;BME280;53689;56.878;60.672;2024-03-17T02:19:16;98890.06;;;21.28;26.08
62524;BME280;53689;56.878;60.672;2024-03-17T02:21:43;98889.22;;;21.27;25.63
62524;BME280;53689;56.878;60.672;2024-03-17T02:24:11;98888.19;;;21.05;26.45
62524;BME280;53689;56.878;60.672;2024-03-17T02:26:37;98878.88;;;21.16;26.82
62524;BME280;53689;56.878;60.672;2024-03-17T02:29:04;98872.91;;;21.05;24.85
62524;BME280;53689;56.878;60.672;2024-03-17T02:31:31;98876.59;;;21.04;24.29
62524;BME280;53689;56.878;60.672;2024-03-17T02:33:58;98883.59;;;21.14;24.64
62524;BME280;53689;56.878;60.672;2024-03-17T02:36:25;98881.63;;;20.76;23.17
62524;BME280;53689;56.878;60.672;2024-03-17T02:38:52;98884.63;;;20.81;23.75
62524;BME280;53689;56.878;60.672;2024-03-17T02:41:20;98883.84;;;21.04;24.13
62524;BME280;53689;56.878;60.672;2024-03-17T02:43:47;98882.69;;;21.21;23.98
62524;BME280;53689;56.878;60.672;2024-03-17T02:46:15;98886.53;;;21.04;23.99
62524;BME280;53689;56.878;60.672;2024-03-17T02:48:42;98890.81;;;20.90;22.61
62524;BME280;53689;56.878;60.672;2024-03-17T02:51:09;98885.16;;;20.85;23.68
62524;BME280;53689;56.878;60.672;2024-03-17T02:53:35;98886.47;;;20.89;23.73
62524;BME280;53689;56.878;60.672;2024-03-17T02:56:02;98885.97;;;20.85;22.73
62524;BME280;53689;56.878;60.672;2024-03-17T02:58:30;98878.78;;;20.77;23.18
62524;BME280;53689;56.878;60.672;2024-03-17T03:00:56;98889.28;;;20.96;23.29
62524;BME280;53689;56.878;60.672;2024-03-17T03:03:23;98883.72;;;20.97;23.76
62524;BME280;53689;56.878;60.672;2024-03-17T03:05:49;98888.56;;;20.70;23.53
62524;BME280;53689;56.878;60.672;2024-03-17T03:08:16;98880.97;;;20.74;24.76
62524;BME280;53689;56.878;60.672;2024-03-17T03:10:44;98879.41;;;20.88;22.73
62524;BME280;53689;56.878;60.672;2024-03-17T03:13:11;98881.56;;;20.92;23.99
62524;BME280;53689;56.878;60.672;2024-03-17T03:15:39;98882.81;;;21.05;24.08
62524;BME280;53689;56.878;60.672;2024-03-17T03:18:05;98889.91;;;21.06;25.31
62524;BME280;53689;56.878;60.672;2024-03-17T03:20:32;98880.06;;;20.82;24.18
62524;BME280;53689;56.878;60.672;2024-03-17T03:22:59;98886.31;;;21.14;25.86
62524;BME280;53689;56.878;60.672;2024-03-17T03:25:25;98888.88;;;21.07;26.97
62524;BME280;53689;56.878;60.672;2024-03-17T03:27:52;98882.28;;;21.10;24.46
62524;BME280;53689;56.878;60.672;2024-03-17T03:30:19;98891.84;;;20.89;25.67
62524;BME280;53689;56.878;60.672;2024-03-17T03:32:47;98902.63;;;21.12;25.92
62524;BME280;53689;56.878;60.672;2024-03-17T03:35:14;98896.59;;;21.10;26.63
62524;BME280;53689;56.878;60.672;2024-03-17T03:37:41;98893.41;;;21.30;27.89
62524;BME280;53689;56.878;60.672;2024-03-17T03:40:08;98893.38;;;21.15;25.18
62524;BME280;53689;56.878;60.672;2024-03-17T03:42:35;98890.66;;;21.15;26.26
62524;BME280;53689;56.878;60.672;2024-03-17T03:45:02;98884.91;;;20.95;25.48
62524;BME280;53689;56.878;60.672;2024-03-17T03:47:29;98898.03;;;21.21;26.84
62524;BME280;53689;56.878;60.672;2024-03-17T03:49:57;98897.47;;;20.71;23.46
62524;BME280;53689;56.878;60.672;2024-03-17T03:52:24;98899.13;;;19.59;21.33
62524;BME280;53689;56.878;60.672;2024-03-17T03:54:51;98905.81;;;19.05;20.72
62524;BME280;53689;56.878;60.672;2024-03-17T03:57:18;98905.78;;;18.88;21.44
62524;BME280;53689;56.878;60.672;2024-03-17T03:59:44;98901.47;;;19.04;21.92
62524;BME280;53689;56.878;60.672;2024-03-17T04:02:11;98903.25;;;18.35;20.73
62524;BME280;53689;56.878;60.672;2024-03-17T04:04:37;98900.53;;;18.27;21.53
62524;BME280;53689;56.878;60.672;2024-03-17T04:07:06;98897.47;;;19.16;20.85
62524;BME280;53689;56.878;60.672;2024-03-17T04:09:32;98902.31;;;19.79;21.70
62524;BME280;53689;56.878;60.672;2024-03-17T04:11:59;98899.75;;;20.50;23.47
62524;BME280;53689;56.878;60.672;2024-03-17T04:14:26;98896.78;;;20.45;22.15
62524;BME280;53689;56.878;60.672;2024-03-17T04:16:52;98895.47;;;20.64;20.79
62524;BME280;53689;56.878;60.672;2024-03-17T04:19:19;98895.19;;;20.59;23.31
62524;BME280;53689;56.878;60.672;2024-03-17T04:21:46;98903.50;;;20.73;24.64
62524;BME280;53689;56.878;60.672;2024-03-17T04:24:15;98902.63;;;20.80;24.06
62524;BME280;53689;56.878;60.672;2024-03-17T04:26:42;98900.50;;;20.68;24.65
62524;BME280;53689;56.878;60.672;2024-03-17T04:29:09;98907.03;;;21.05;26.00
62524;BME280;53689;56.878;60.672;2024-03-17T04:34:03;98903.53;;;21.04;25.40
62524;BME280;53689;56.878;60.672;2024-03-17T04:36:30;98901.50;;;21.06;25.23
62524;BME280;53689;56.878;60.672;2024-03-17T04:38:56;98904.47;;;20.88;25.12
62524;BME280;53689;56.878;60.672;2024-03-17T04:41:25;98905.41;;;20.96;25.54
62524;BME280;53689;56.878;60.672;2024-03-17T04:43:51;98902.16;;;21.09;26.09
62524;BME280;53689;56.878;60.672;2024-03-17T04:46:18;98896.00;;;21.23;26.91
62524;BME280;53689;56.878;60.672;2024-03-17T04:48:45;98902.63;;;21.12;25.16
62524;BME280;53689;56.878;60.672;2024-03-17T04:51:15;98909.56;;;21.06;25.03
62524;BME280;53689;56.878;60.672;2024-03-17T04:53:42;98902.16;;;21.09;24.74
62524;BME280;53689;56.878;60.672;2024-03-17T04:56:10;98900.47;;;21.07;26.67
62524;BME280;53689;56.878;60.672;2024-03-17T04:58:38;98899.59;;;21.15;25.55
62524;BME280;53689;56.878;60.672;2024-03-17T05:01:06;98899.44;;;21.09;26.53
62524;BME280;53689;56.878;60.672;2024-03-17T05:03:33;98902.63;;;21.12;25.18
62524;BME280;53689;56.878;60.672;2024-03-17T05:06:00;98904.66;;;21.10;26.09
62524;BME280;53689;56.878;60.672;2024-03-17T05:08:27;98897.03;;;21.22;26.51
62524;BME280;53689;56.878;60.672;2024-03-17T05:10:56;98900.00;;;21.27;25.13
62524;BME280;53689;56.878;60.672;2024-03-17T05:13:23;98901.50;;;21.06;26.49
62524;BME280;53689;56.878;60.672;2024-03-17T05:15:51;98897.34;;;21.19;26.70
62524;BME280;53689;56.878;60.672;2024-03-17T05:18:17;98908.25;;;21.02;26.80
62524;BME280;53689;56.878;60.672;2024-03-17T05:20:44;98903.81;;;21.33;25.94
62524;BME280;53689;56.878;60.672;2024-03-17T05:23:10;98897.03;;;21.22;26.80
62524;BME280;53689;56.878;60.672;2024-03-17T05:25:37;98900.47;;;21.07;26.29
62524;BME280;53689;56.878;60.672;2024-03-17T05:28:04;98903.28;;;21.14;26.16
62524;BME280;53689;56.878;60.672;2024-03-17T05:30:30;98905.75;;;21.24;26.84
62524;BME280;53689;56.878;60.672;2024-03-17T05:32:58;98903.66;;;21.11;26.95
62524;BME280;53689;56.878;60.672;2024-03-17T05:35:25;98901.28;;;21.16;24.43
62524;BME280;53689;56.878;60.672;2024-03-17T05:37:52;98895.19;;;21.14;27.51
62524;BME280;53689;56.878;60.672;2024-03-17T05:40:19;98896.47;;;21.03;26.55
62524;BME280;53689;56.878;60.672;2024-03-17T05:42:45;98891.25;;;21.25;26.72
62524;BME280;53689;56.878;60.672;2024-03-17T05:45:12;98901.22;;;21.25;25.93
62524;BME280;53689;56.878;60.672;2024-03-17T05:47:38;98892.41;;;21.07;26.51
62524;BME280;53689;56.878;60.672;2024-03-17T05:50:07;98891.19;;;21.33;26.63
62524;BME280;53689;56.878;60.672;2024-03-17T05:52:35;98896.41;;;21.12;26.57
62524;BME280;53689;56.878;60.672;2024-03-17T05:55:01;98890.25;;;21.03;27.45
62524;BME280;53689;56.878;60.672;2024-03-17T05:57:28;98892.50;;;21.14;25.42
62524;BME280;53689;56.878;60.672;2024-03-17T05:59:54;98895.91;;;20.85;26.23
62524;BME280;53689;56.878;60.672;2024-03-17T06:02:21;98900.25;;;21.17;27.03
62524;BME280;53689;56.878;60.672;2024-03-17T06:04:47;98891.75;;;21.29;26.23
62524;BME280;53689;56.878;60.672;2024-03-17T06:07:15;98899.41;;;21.17;23.96
62524;BME280;53689;56.878;60.672;2024-03-17T06:09:42;98897.56;;;21.17;26.55
62524;BME280;53689;56.878;60.672;2024-03-17T06:12:08;98898.16;;;21.28;25.48
62524;BME280;53689;56.878;60.672;2024-03-17T06:14:35;98907.03;;;21.28;26.90
62524;BME280;53689;56.878;60.672;2024-03-17T06:17:01;98897.41;;;21.34;27.19
62524;BME280;53689;56.878;60.672;2024-03-17T06:19:30;98898.38;;;21.18;25.99
62524;BME280;53689;56.878;60.672;2024-03-17T06:21:57;98899.09;;;20.88;26.87
62524;BME280;53689;56.878;60.672;2024-03-17T06:24:24;98894.88;;;21.17;26.44
62524;BME280;53689;56.878;60.672;2024-03-17T06:26:51;98902.50;;;21.05;26.17
62524;BME280;53689;56.878;60.672;2024-03-17T06:29:17;98903.47;;;21.13;26.42
62524;BME280;53689;56.878;60.672;2024-03-17T06:31:45;98902.41;;;20.99;25.85
62524;BME280;53689;56.878;60.672;2024-03-17T06:34:12;98900.72;;;21.21;25.26
62524;BME280;53689;56.878;60.672;2024-03-17T06:36:39;98897.72;;;21.16;25.37
62524;BME280;53689;56.878;60.672;2024-03-17T06:39:06;98890.88;;;21.05;26.82
62524;BME280;53689;56.878;60.672;2024-03-17T06:41:35;98895.03;;;21.16;26.45
62524;BME280;53689;56.878;60.672;2024-03-17T06:44:02;98890.44;;;21.01;27.05
62524;BME280;53689;56.878;60.672;2024-03-17T06:46:29;98893.72;;;21.12;26.22
62524;BME280;53689;56.878;60.672;2024-03-17T06:48:56;98888.19;;;21.05;26.06
62524;BME280;53689;56.878;60.672;2024-03-17T06:53:49;98876.19;;;20.92;25.37
62524;BME280;53689;56.878;60.672;2024-03-17T06:56:15;98874.03;;;20.79;27.11
62524;BME280;53689;56.878;60.672;2024-03-17T06:58:43;98876.22;;;20.84;25.30
62524;BME280;53689;56.878;60.672;2024-03-17T07:01:10;98877.81;;;21.02;26.52
62524;BME280;53689;56.878;60.672;2024-03-17T07:03:36;98879.59;;;21.10;26.79
62524;BME280;53689;56.878;60.672;2024-03-17T07:06:03;98869.91;;;21.00;24.91
62524;BME280;53689;56.878;60.672;2024-03-17T07:08:30;98876.28;;;20.99;26.76
62524;BME280;53689;56.878;60.672;2024-03-17T07:10:57;98876.84;;;20.95;24.84
62524;BME280;53689;56.878;60.672;2024-03-17T07:13:24;98871.41;;;21.03;26.76
62524;BME280;53689;56.878;60.672;2024-03-17T07:15:52;98880.25;;;20.88;24.12
62524;BME280;53689;56.878;60.672;2024-03-17T07:18:19;98876.44;;;20.83;23.88
62524;BME280;53689;56.878;60.672;2024-03-17T07:20:45;98867.16;;;20.77;24.54
62524;BME280;53689;56.878;60.672;2024-03-17T07:23:13;98867.59;;;20.57;24.15
62524;BME280;53689;56.878;60.672;2024-03-17T07:25:39;98867.03;;;20.70;26.38
62524;BME280;53689;56.878;60.672;2024-03-17T07:28:06;98870.91;;;20.99;25.92
62524;BME280;53689;56.878;60.672;2024-03-17T07:30:32;98871.03;;;20.83;24.47
62524;BME280;53689;56.878;60.672;2024-03-17T07:33:01;98860.78;;;20.78;23.44
62524;BME280;53689;56.878;60.672;2024-03-17T07:35:27;98866.47;;;20.83;25.59
62524;BME280;53689;56.878;60.672;2024-03-17T07:37:54;98875.91;;;20.87;26.15
62524;BME280;53689;56.878;60.672;2024-03-17T07:40:20;98860.16;;;20.99;25.29
62524;BME280;53689;56.878;60.672;2024-03-17T07:42:47;98861.44;;;20.80;24.99
62524;BME280;53689;56.878;60.672;2024-03-17T07:45:13;98868.66;;;20.79;23.87
62524;BME280;53689;56.878;60.672;2024-03-17T07:47:40;98862.78;;;20.84;26.46
62524;BME280;53689;56.878;60.672;2024-03-17T07:50:08;98860.63;;;21.03;26.22
62524;BME280;53689;56.878;60.672;2024-03-17T07:52:34;98859.44;;;21.05;25.19
62524;BME280;53689;56.878;60.672;2024-03-17T07:55:01;98855.34;;;20.86;26.19
62524;BME280;53689;56.878;60.672;2024-03-17T07:57:28;98850.47;;;20.82;26.29
62524;BME280;53689;56.878;60.672;2024-03-17T07:59:55;98850.53;;;20.50;26.73
62524;BME280;53689;56.878;60.672;2024-03-17T08:02:21;98851.41;;;20.65;26.56
62524;BME280;53689;56.878;60.672;2024-03-17T08:04:48;98851.81;;;20.54;24.00
62524;BME280;53689;56.878;60.672;2024-03-17T08:07:16;98844.53;;;20.63;23.35
62524;BME280;53689;56.878;60.672;2024-03-17T08:09:43;98846.53;;;20.37;22.68
62524;BME280;53689;56.878;60.672;2024-03-17T08:12:09;98846.16;;;21.04;25.10
62524;BME280;53689;56.878;60.672;2024-03-17T08:14:36;98845.31;;;21.03;25.05
62524;BME280;53689;56.878;60.672;2024-03-17T08:17:03;98841.31;;;20.68;23.13
62524;BME280;53689;56.878;60.672;2024-03-17T08:19:29;98848.72;;;20.65;24.39
62524;BME280;53689;56.878;60.672;2024-03-17T08:21:58;98844.31;;;20.73;23.76
62524;BME280;53689;56.878;60.672;2024-03-17T08:24:26;98837.69;;;20.60;24.45
62524;BME280;53689;56.878;60.672;2024-03-17T08:26:52;98841.50;;;20.34;23.42
62524;BME280;53689;56.878;60.672;2024-03-17T08:29:19;98844.16;;;20.43;23.25
62524;BME280;53689;56.878;60.672;2024-03-17T08:31:46;98835.06;;;20.44;23.86
62524;BME280;53689;56.878;60.672;2024-03-17T08:34:12;98843.09;;;20.52;25.16
62524;BME280;53689;56.878;60.672;2024-03-17T08:36:42;98836.91;;;21.21;25.79
62524;BME280;53689;56.878;60.672;2024-03-17T08:39:08;98839.72;;;21.28;25.87
62524;BME280;53689;56.878;60.672;2024-03-17T08:41:37;98843.19;;;21.37;25.79
62524;BME280;53689;56.878;60.672;2024-03-17T08:44:03;98837.16;;;21.35;26.13
62524;BME280;53689;56.878;60.672;2024-03-17T08:46:30;98823.78;;;21.03;24.81
62524;BME280;53689;56.878;60.672;2024-03-17T08:48:57;98826.91;;;20.60;23.27
62524;BME280;53689;56.878;60.672;2024-03-17T08:51:23;98824.63;;;20.72;24.67
62524;BME280;53689;56.878;60.672;2024-03-17T08:53:50;98828.59;;;20.93;26.06
62524;BME280;53689;56.878;60.672;2024-03-17T08:56:16;98828.81;;;20.83;24.98
62524;BME280;53689;56.878;60.672;2024-03-17T08:58:44;98818.38;;;20.57;25.29
62524;BME280;53689;56.878;60.672;2024-03-17T09:01:13;98820.53;;;20.61;23.98
62524;BME280;53689;56.878;60.672;2024-03-17T09:03:41;98818.97;;;20.67;24.34
62524;BME280;53689;56.878;60.672;2024-03-17T09:06:14;98819.50;;;20.62;23.88
62524;BME280;53689;56.878;60.672;2024-03-17T09:08:41;98814.66;;;20.81;25.27
62524;BME280;53689;56.878;60.672;2024-03-17T09:11:12;98817.78;;;20.70;25.84
62524;BME280;53689;56.878;60.672;2024-03-17T09:13:39;98811.66;;;20.76;25.47
62524;BME280;53689;56.878;60.672;2024-03-17T09:16:07;98814.78;;;20.64;25.46
62524;BME280;53689;56.878;60.672;2024-03-17T09:18:34;98805.88;;;20.64;24.79
62524;BME280;53689;56.878;60.672;2024-03-17T09:21:02;98806.97;;;20.78;25.29
62524;BME280;53689;56.878;60.672;2024-03-17T09:23:30;98799.03;;;20.85;25.64
62524;BME280;53689;56.878;60.672;2024-03-17T09:25:58;98813.72;;;20.97;26.14
62524;BME280;53689;56.878;60.672;2024-03-17T09:28:25;98801.66;;;20.93;25.41
62524;BME280;53689;56.878;60.672;2024-03-17T09:30:52;98805.13;;;21.02;27.13
62524;BME280;53689;56.878;60.672;2024-03-17T09:33:21;98805.00;;;20.95;26.72
62524;BME280;53689;56.878;60.672;2024-03-17T09:35:57;98807.22;;;21.30;27.12
62524;BME280;53689;56.878;60.672;2024-03-17T09:38:24;98798.94;;;21.16;26.46
62524;BME280;53689;56.878;60.672;2024-03-17T09:40:51;98800.66;;;21.32;27.48
62524;BME280;53689;56.878;60.672;2024-03-17T09:43:17;98801.41;;;21.56;26.84
62524;BME280;53689;56.878;60.672;2024-03-17T09:45:44;98799.56;;;21.57;27.10
62524;BME280;53689;56.878;60.672;2024-03-17T09:48:14;98799.16;;;21.45;26.33
62524;BME280;53689;56.878;60.672;2024-03-17T09:50:45;98798.81;;;21.10;26.60
62524;BME280;53689;56.878;60.672;2024-03-17T09:53:16;98803.34;;;21.32;26.67
62524;BME280;53689;56.878;60.672;2024-03-17T09:55:42;98793.13;;;21.28;25.25
62524;BME280;53689;56.878;60.672;2024-03-17T09:58:15;98797.44;;;21.14;28.70
62524;BME280;53689;56.878;60.672;2024-03-17T10:00:42;98791.91;;;21.30;26.99
62524;BME280;53689;56.878;60.672;2024-03-17T10:03:08;98795.81;;;21.28;27.74
62524;BME280;53689;56.878;60.672;2024-03-17T10:05:35;98788.69;;;21.50;28.08
62524;BME280;53689;56.878;60.672;2024-03-17T10:08:03;98783.44;;;21.18;27.44
62524;BME280;53689;56.878;60.672;2024-03-17T10:10:30;98789.59;;;21.42;28.14
62524;BME280;53689;56.878;60.672;2024-03-17T10:12:56;98789.88;;;21.32;27.42
62524;BME280;53689;56.878;60.672;2024-03-17T10:15:23;98786.09;;;21.42;28.07
62524;BME280;53689;56.878;60.672;2024-03-17T10:17:49;98780.13;;;21.46;26.87
62524;BME280;53689;56.878;60.672;2024-03-17T10:20:17;98780.31;;;21.45;28.16
62524;BME280;53689;56.878;60.672;2024-03-17T10:22:58;98780.13;;;21.46;26.15
62524;BME280;53689;56.878;60.672;2024-03-17T10:25:27;98780.19;;;21.23;27.44
62524;BME280;53689;56.878;60.672;2024-03-17T10:27:54;98779.56;;;21.36;25.87
62524;BME280;53689;56.878;60.672;2024-03-17T10:30:23;98781.72;;;21.41;27.08
62524;BME280;53689;56.878;60.672;2024-03-17T10:32:54;98774.28;;;21.43;27.60
62524;BME280;53689;56.878;60.672;2024-03-17T10:35:39;98768.91;;;21.43;26.66
62524;BME280;53689;56.878;60.672;2024-03-17T10:38:06;98775.94;;;21.29;26.84
62524;BME280;53689;56.878;60.672;2024-03-17T10:40:35;98780.31;;;21.45;27.09
62524;BME280;53689;56.878;60.672;2024-03-17T10:43:02;98773.97;;;21.38;27.84
62524;BME280;53689;56.878;60.672;2024-03-17T10:45:29;98771.59;;;21.58;27.35
62524;BME280;53689;56.878;60.672;2024-03-17T10:47:56;98775.41;;;21.48;27.81
62524;BME280;53689;56.878;60.672;2024-03-17T10:50:25;98770.75;;;21.57;28.02
62524;BME280;53689;56.878;60.672;2024-03-17T10:52:55;98770.31;;;21.54;27.59
62524;BME280;53689;56.878;60.672;2024-03-17T10:55:26;98766.94;;;21.37;27.86
62524;BME280;53689;56.878;60.672;2024-03-17T10:57:54;98764.81;;;21.62;27.35
62524;BME280;53689;56.878;60.672;2024-03-17T11:00:22;98772.13;;;21.38;26.39
62524;BME280;53689;56.878;60.672;2024-03-17T11:02:50;98764.63;;;21.63;26.98
62524;BME280;53689;56.878;60.672;2024-03-17T11:05:20;98761.19;;;21.55;27.96
62524;BME280;53689;56.878;60.672;2024-03-17T11:07:49;98756.63;;;21.55;28.49
62524;BME280;53689;56.878;60.672;2024-03-17T11:10:19;98753.38;;;21.60;26.98
62524;BME280;53689;56.878;60.672;2024-03-17T11:12:48;98761.00;;;21.41;27.62
62524;BME280;53689;56.878;60.672;2024-03-17T11:15:50;98761.19;;;21.55;28.58
62524;BME280;53689;56.878;60.672;2024-03-17T11:18:34;98758.75;;;21.60;28.57
62524;BME280;53689;56.878;60.672;2024-03-17T11:21:04;98754.41;;;21.59;27.61
62524;BME280;53689;56.878;60.672;2024-03-17T11:23:32;98755.13;;;21.53;27.99
62524;BME280;53689;56.878;60.672;2024-03-17T11:25:58;98756.25;;;21.43;26.18
62524;BME280;53689;56.878;60.672;2024-03-17T11:28:47;98751.88;;;21.57;28.25
62524;BME280;53689;56.878;60.672;2024-03-17T11:31:38;98743.25;;;21.62;26.65
62524;BME280;53689;56.878;60.672;2024-03-17T11:34:06;98753.13;;;21.55;25.92
62524;BME280;53689;56.878;60.672;2024-03-17T11:36:35;98743.44;;;21.60;27.52
62524;BME280;53689;56.878;60.672;2024-03-17T11:39:03;98738.97;;;21.53;27.94
62524;BME280;53689;56.878;60.672;2024-03-17T11:41:32;98739.09;;;21.74;27.54
62524;BME280;53689;56.878;60.672;2024-03-17T11:44:16;98734.34;;;21.46;27.11
62524;BME280;53689;56.878;60.672;2024-03-17T11:46:52;98738.97;;;21.53;27.60
62524;BME280;53689;56.878;60.672;2024-03-17T11:49:21;98744.09;;;21.47;26.83
62524;BME280;53689;56.878;60.672;2024-03-17T11:51:48;98739.66;;;21.40;27.77
62524;BME280;53689;56.878;60.672;2024-03-17T11:54:17;98734.25;;;21.55;27.40
62524;BME280;53689;56.878;60.672;2024-03-17T11:56:44;98738.25;;;21.44;26.96
62524;BME280;53689;56.878;60.672;2024-03-17T11:59:11;98736.00;;;21.47;28.26
62524;BME280;53689;56.878;60.672;2024-03-17T12:01:37;98729.31;;;21.43;27.17
62524;BME280;53689;56.878;60.672;2024-03-17T12:04:07;98734.34;;;21.61;28.32
62524;BME280;53689;56.878;60.672;2024-03-17T12:06:34;98736.66;;;21.49;27.49
62524;BME280;53689;56.878;60.672;2024-03-17T12:09:19;98734.06;;;21.41;27.94
62524;BME280;53689;56.878;60.672;2024-03-17T12:11:46;98726.72;;;21.50;27.16
62524;BME280;53689;56.878;60.672;2024-03-17T12:14:16;98726.44;;;21.30;27.96
62524;BME280;53689;56.878;60.672;2024-03-17T12:16:50;98727.63;;;21.57;26.77
62524;BME280;53689;56.878;60.672;2024-03-17T12:19:19;98722.00;;;21.37;27.69
62524;BME280;53689;56.878;60.672;2024-03-17T12:21:47;98728.28;;;21.29;27.75
62524;BME280;53689;56.878;60.672;2024-03-17T12:24:16;98719.94;;;21.39;28.57
62524;BME280;53689;56.878;60.672;2024-03-17T12:26:43;98728.03;;;21.39;25.91
62524;BME280;53689;56.878;60.672;2024-03-17T12:29:24;98726.06;;;21.33;24.07
62524;BME280;53689;56.878;60.672;2024-03-17T12:31:52;98726.25;;;21.16;27.25
62524;BME280;53689;56.878;60.672;2024-03-17T12:34:20;98720.78;;;21.40;25.94
62524;BME280;53689;56.878;60.672;2024-03-17T12:36:50;98720.22;;;21.44;26.02
62524;BME280;53689;56.878;60.672;2024-03-17T12:39:18;98714.63;;;21.46;26.25
62524;BME280;53689;56.878;60.672;2024-03-17T12:41:52;98717.72;;;21.28;26.45
62524;BME280;53689;56.878;60.672;2024-03-17T12:44:26;98711.38;;;21.35;27.12
62524;BME280;53689;56.878;60.672;2024-03-17T12:46:56;98705.75;;;21.30;27.03
62524;BME280;53689;56.878;60.672;2024-03-17T12:49:24;98716.31;;;21.47;27.53
62524;BME280;53689;56.878;60.672;2024-03-17T12:51:51;98704.25;;;21.43;26.18
62524;BME280;53689;56.878;60.672;2024-03-17T12:54:21;98714.38;;;21.41;25.31
62524;BME280;53689;56.878;60.672;2024-03-17T12:56:48;98707.03;;;21.19;26.39
62524;BME280;53689;56.878;60.672;2024-03-17T12:59:15;98700.78;;;21.34;27.54
62524;BME280;53689;56.878;60.672;2024-03-17T13:01:41;98706.00;;;21.35;28.09